createdAt,value
2018-11-26T00:01:35.290Z,64.20
2018-11-26T00:04:04.002Z,64.20
2018-11-26T00:06:45.493Z,64.20
2018-11-26T00:09:13.993Z,64.20
2018-11-26T00:11:42.855Z,64.20
2018-11-26T00:14:11.361Z,64.20
2018-11-26T00:16:39.885Z,64.20
2018-11-26T00:19:08.313Z,64.20
2018-11-26T00:21:36.831Z,64.20
2018-11-26T00:31:03.708Z,64.40
2018-11-26T00:33:39.370Z,64.30
2018-11-26T00:36:07.851Z,64.40
2018-11-26T00:40:56.583Z,64.30
2018-11-26T00:43:25.073Z,64.40
2018-11-26T00:45:53.488Z,64.40
2018-11-26T00:48:21.916Z,64.30
2018-11-26T00:50:52.164Z,64.30
2018-11-26T00:53:20.636Z,64.40
2018-11-26T00:55:49.127Z,64.40
2018-11-26T00:58:17.600Z,64.40
2018-11-26T01:00:46.101Z,64.40
2018-11-26T01:03:14.579Z,64.50
2018-11-26T01:05:46.128Z,64.40
2018-11-26T01:08:16.245Z,64.40
2018-11-26T01:10:44.667Z,64.40
2018-11-26T01:13:13.217Z,64.40
2018-11-26T01:15:41.670Z,64.40
2018-11-26T01:18:10.167Z,64.40
2018-11-26T01:20:38.660Z,64.50
2018-11-26T01:23:07.128Z,64.50
2018-11-26T01:25:35.578Z,64.40
2018-11-26T01:28:04.107Z,64.40
2018-11-26T01:30:32.577Z,64.50
2018-11-26T01:33:01.065Z,64.40
2018-11-26T01:35:29.537Z,64.40
2018-11-26T01:37:58.034Z,64.40
2018-11-26T01:40:32.080Z,64.50
2018-11-26T01:43:00.724Z,64.40
2018-11-26T01:45:29.138Z,64.50
2018-11-26T01:47:57.677Z,64.50
2018-11-26T01:50:26.152Z,64.50
2018-11-26T01:52:54.616Z,64.50
2018-11-26T01:55:23.113Z,64.50
2018-11-26T01:57:51.525Z,64.50
2018-11-26T02:00:21.295Z,64.70
2018-11-26T02:02:49.700Z,64.50
2018-11-26T02:05:18.269Z,64.50
2018-11-26T02:07:46.687Z,64.50
2018-11-26T02:10:16.613Z,64.50
2018-11-26T02:12:45.140Z,64.60
2018-11-26T02:15:45.257Z,64.70
2018-11-26T02:18:13.842Z,64.70
2018-11-26T02:20:42.249Z,64.70
2018-11-26T02:23:10.812Z,64.70
2018-11-26T02:25:39.375Z,64.70
2018-11-26T02:28:07.988Z,64.70
2018-11-26T02:30:36.503Z,64.70
2018-11-26T02:33:10.263Z,64.70
2018-11-26T02:35:40.179Z,64.70
2018-11-26T02:38:08.651Z,64.80
2018-11-26T02:40:37.094Z,64.80
2018-11-26T02:43:05.623Z,64.80
2018-11-26T02:45:34.064Z,64.70
2018-11-26T02:48:02.593Z,64.80
2018-11-26T02:50:31.963Z,64.80
2018-11-26T02:53:00.569Z,64.80
2018-11-26T02:55:29.075Z,64.80
2018-11-26T02:57:57.524Z,64.80
2018-11-26T03:00:25.964Z,64.80
2018-11-26T03:02:54.492Z,64.80
2018-11-26T03:05:27.176Z,64.80
2018-11-26T03:07:55.775Z,64.80
2018-11-26T03:10:24.259Z,64.80
2018-11-26T03:12:52.953Z,64.80
2018-11-26T03:15:22.239Z,64.80
2018-11-26T03:17:52.135Z,64.90
2018-11-26T03:20:20.617Z,64.80
2018-11-26T03:22:49.114Z,64.80
2018-11-26T03:25:17.590Z,64.80
2018-11-26T03:27:46.072Z,64.90
2018-11-26T03:30:18.422Z,64.80
2018-11-26T03:32:46.856Z,64.80
2018-11-26T03:35:15.413Z,64.80
2018-11-26T03:37:43.845Z,64.90
2018-11-26T03:40:13.244Z,64.90
2018-11-26T03:42:42.162Z,64.90
2018-11-26T03:45:13.706Z,64.80
2018-11-26T03:47:42.146Z,64.80
2018-11-26T03:50:21.641Z,64.80
2018-11-26T03:52:52.195Z,64.80
2018-11-26T03:55:20.647Z,64.90
2018-11-26T03:57:49.133Z,64.90
2018-11-26T04:00:17.730Z,64.90
2018-11-26T04:02:46.298Z,64.80
2018-11-26T04:05:14.781Z,64.90
2018-11-26T04:07:43.192Z,64.90
2018-11-26T04:10:12.703Z,64.80
2018-11-26T04:12:41.288Z,64.90
2018-11-26T04:15:11.164Z,64.90
2018-11-26T04:17:39.655Z,64.90
2018-11-26T04:20:08.913Z,64.90
2018-11-26T04:22:37.382Z,64.90
2018-11-26T04:25:07.009Z,64.90
2018-11-26T04:27:35.687Z,64.90
2018-11-26T04:30:04.995Z,65.00
2018-11-26T04:32:40.054Z,65.00
2018-11-26T04:35:08.708Z,64.90
2018-11-26T04:37:37.324Z,64.90
2018-11-26T04:40:08.145Z,65.00
2018-11-26T04:42:40.221Z,64.90
2018-11-26T04:45:09.758Z,65.00
2018-11-26T04:47:38.273Z,64.90
2018-11-26T04:50:10.260Z,65.00
2018-11-26T04:52:39.025Z,64.90
2018-11-26T04:55:08.539Z,65.00
2018-11-26T04:57:42.115Z,65.00
2018-11-26T05:00:07.896Z,64.90
2018-11-26T05:02:36.478Z,65.00
2018-11-26T05:05:11.245Z,65.00
2018-11-26T05:07:39.791Z,65.00
2018-11-26T05:10:09.680Z,65.00
2018-11-26T05:12:38.176Z,65.00
2018-11-26T05:15:08.180Z,65.00
2018-11-26T05:17:40.279Z,65.10
2018-11-26T05:20:12.516Z,65.00
2018-11-26T05:22:41.141Z,65.00
2018-11-26T05:25:10.430Z,65.00
2018-11-26T05:27:38.893Z,65.00
2018-11-26T05:30:11.366Z,65.00
2018-11-26T05:32:39.948Z,65.10
2018-11-26T05:35:09.737Z,65.00
2018-11-26T05:37:38.339Z,65.00
2018-11-26T05:40:09.473Z,65.00
2018-11-26T05:42:37.891Z,65.00
2018-11-26T05:45:09.941Z,65.00
2018-11-26T05:47:38.400Z,65.00
2018-11-26T05:50:09.452Z,65.00
2018-11-26T05:52:40.866Z,65.00
2018-11-26T05:55:13.992Z,65.00
2018-11-26T05:57:42.446Z,65.00
2018-11-26T06:00:25.112Z,65.10
2018-11-26T06:02:53.682Z,65.10
2018-11-26T06:05:22.169Z,65.10
2018-11-26T06:07:57.786Z,65.10
2018-11-26T06:10:26.295Z,65.10
2018-11-26T06:12:54.728Z,65.00
2018-11-26T06:15:23.281Z,65.00
2018-11-26T06:17:52.333Z,65.00
2018-11-26T06:20:20.745Z,65.10
2018-11-26T06:22:49.304Z,65.10
2018-11-26T06:25:19.804Z,65.00
2018-11-26T06:27:48.611Z,65.00
2018-11-26T06:30:18.309Z,65.00
2018-11-26T06:32:46.716Z,65.00
2018-11-26T06:35:16.408Z,65.00
2018-11-26T06:37:44.900Z,65.00
2018-11-26T06:40:13.860Z,65.00
2018-11-26T06:42:42.506Z,65.10
2018-11-26T06:45:25.581Z,65.10
2018-11-26T06:47:58.309Z,65.00
2018-11-26T06:50:26.744Z,65.00
2018-11-26T06:52:55.163Z,65.00
2018-11-26T06:55:23.720Z,65.10
2018-11-26T06:57:52.221Z,65.00
2018-11-26T07:00:22.336Z,65.10
2018-11-26T07:02:50.774Z,65.10
2018-11-26T07:05:20.217Z,65.10
2018-11-26T07:07:48.816Z,65.10
2018-11-26T07:10:17.911Z,65.10
2018-11-26T07:12:46.364Z,65.10
2018-11-26T07:15:15.862Z,65.10
2018-11-26T07:17:44.320Z,65.10
2018-11-26T07:20:17.523Z,65.10
2018-11-26T07:22:46.103Z,65.20
2018-11-26T07:25:18.245Z,65.20
2018-11-26T07:27:53.717Z,65.10
2018-11-26T07:30:24.451Z,65.10
2018-11-26T07:33:01.404Z,65.10
2018-11-26T07:35:30.427Z,65.20
2018-11-26T07:37:59.031Z,65.10
2018-11-26T07:40:27.471Z,65.10
2018-11-26T07:43:03.248Z,65.10
2018-11-26T07:45:31.857Z,65.10
2018-11-26T07:48:00.350Z,65.10
2018-11-26T07:50:28.826Z,65.10
2018-11-26T07:52:57.275Z,65.20
2018-11-26T07:55:25.780Z,65.20
2018-11-26T07:57:54.252Z,65.10
2018-11-26T08:00:23.029Z,65.10
2018-11-26T08:02:51.901Z,65.20
2018-11-26T08:05:22.418Z,65.10
2018-11-26T08:07:51.040Z,65.10
2018-11-26T08:10:21.576Z,65.10
2018-11-26T08:12:52.443Z,65.10
2018-11-26T08:15:23.681Z,65.20
2018-11-26T08:17:52.095Z,65.20
2018-11-26T08:20:20.617Z,65.20
2018-11-26T08:22:49.104Z,65.20
2018-11-26T08:25:19.147Z,65.20
2018-11-26T08:27:48.282Z,65.20
2018-11-26T08:30:20.867Z,65.20
2018-11-26T08:32:52.542Z,65.30
2018-11-26T08:35:21.148Z,65.30
2018-11-26T08:38:01.749Z,65.30
2018-11-26T08:40:39.831Z,65.40
2018-11-26T08:43:13.939Z,65.30
2018-11-26T08:45:49.583Z,65.30
2018-11-26T08:48:23.531Z,65.30
2018-11-26T08:50:52.174Z,65.40
2018-11-26T08:53:20.664Z,65.30
2018-11-26T08:55:52.500Z,65.30
2018-11-26T08:58:21.087Z,65.40
2018-11-26T09:00:54.928Z,65.40
2018-11-26T09:03:23.408Z,65.40
2018-11-26T09:06:00.213Z,65.40
2018-11-26T09:08:29.928Z,65.40
2018-11-26T09:10:58.422Z,65.40
2018-11-26T09:13:26.853Z,65.40
2018-11-26T09:15:55.398Z,65.40
2018-11-26T09:18:23.915Z,65.40
2018-11-26T09:20:52.383Z,65.50
2018-11-26T09:25:57.284Z,65.40
2018-11-26T09:28:25.801Z,65.40
2018-11-26T09:30:54.227Z,65.40
2018-11-26T09:33:22.776Z,65.40
2018-11-26T09:35:51.249Z,65.40
2018-11-26T09:38:27.932Z,65.40
2018-11-26T09:40:56.383Z,65.50
2018-11-26T09:43:24.880Z,65.40
2018-11-26T09:45:53.296Z,65.50
2018-11-26T09:48:21.845Z,65.50
2018-11-26T09:50:50.310Z,65.50
2018-11-26T09:53:18.740Z,65.50
2018-11-26T09:55:47.295Z,65.50
2018-11-26T09:58:15.749Z,65.50
2018-11-26T10:00:44.237Z,65.60
2018-11-26T10:03:12.719Z,65.60
2018-11-26T10:05:41.188Z,65.60
2018-11-26T10:08:09.678Z,65.60
2018-11-26T10:10:38.105Z,65.60
2018-11-26T10:13:07.162Z,65.60
2018-11-26T10:15:35.724Z,65.80
2018-11-26T10:18:04.188Z,65.60
2018-11-26T10:20:34.540Z,65.80
2018-11-26T10:23:03.032Z,65.80
2018-11-26T10:25:31.462Z,65.80
2018-11-26T10:28:04.521Z,65.80
2018-11-26T10:30:32.961Z,65.80
2018-11-26T10:33:01.444Z,65.80
2018-11-26T10:35:29.901Z,65.80
2018-11-26T10:37:58.441Z,65.80
2018-11-26T10:40:27.721Z,65.80
2018-11-26T10:42:56.500Z,65.80
2018-11-26T10:45:28.603Z,65.80
2018-11-26T10:47:57.022Z,65.80
2018-11-26T10:50:26.616Z,65.90
2018-11-26T10:53:06.502Z,65.80
2018-11-26T10:55:36.151Z,65.80
2018-11-26T10:58:10.535Z,65.90
2018-11-26T11:00:40.311Z,65.90
2018-11-26T11:03:15.871Z,65.90
2018-11-26T11:05:46.443Z,65.90
2018-11-26T11:08:14.884Z,65.90
2018-11-26T11:10:43.389Z,65.90
2018-11-26T11:13:11.808Z,65.90
2018-11-26T11:15:40.360Z,65.90
2018-11-26T11:18:08.845Z,65.90
2018-11-26T11:20:37.403Z,65.90
2018-11-26T11:23:07.010Z,65.90
2018-11-26T11:25:35.526Z,66.00
2018-11-26T11:28:04.214Z,66.00
2018-11-26T11:30:32.697Z,66.00
2018-11-26T11:35:28.846Z,66.00
2018-11-26T11:37:57.517Z,66.00
2018-11-26T11:40:30.065Z,66.00
2018-11-26T11:42:59.348Z,66.00
2018-11-26T11:45:28.561Z,66.00
2018-11-26T11:47:57.160Z,66.00
2018-11-26T11:50:25.645Z,66.00
2018-11-26T11:52:58.617Z,66.10
2018-11-26T11:55:28.560Z,66.00
2018-11-26T11:57:57.014Z,66.10
2018-11-26T12:00:37.325Z,66.10
2018-11-26T12:03:11.365Z,66.10
2018-11-26T12:05:39.877Z,66.10
2018-11-26T12:08:08.746Z,66.10
2018-11-26T12:10:37.172Z,66.10
2018-11-26T12:13:06.934Z,66.10
2018-11-26T12:15:42.007Z,66.00
2018-11-26T12:18:11.265Z,66.10
2018-11-26T12:20:39.793Z,66.10
2018-11-26T12:23:08.485Z,66.10
2018-11-26T12:25:37.147Z,66.10
2018-11-26T12:28:10.529Z,66.10
2018-11-26T12:30:40.564Z,66.10
2018-11-26T12:33:09.166Z,66.10
2018-11-26T12:35:37.863Z,66.10
2018-11-26T12:38:10.465Z,66.10
2018-11-26T12:40:40.528Z,66.10
2018-11-26T12:43:09.025Z,66.10
2018-11-26T12:45:37.481Z,66.10
2018-11-26T12:48:05.956Z,66.20
2018-11-26T12:50:34.497Z,66.20
2018-11-26T12:53:03.157Z,66.10
2018-11-26T12:55:31.841Z,66.20
2018-11-26T12:58:00.529Z,66.20
2018-11-26T13:00:29.576Z,66.20
2018-11-26T13:03:01.559Z,66.20
2018-11-26T13:05:30.081Z,66.20
2018-11-26T13:08:04.695Z,66.20
2018-11-26T13:10:33.145Z,66.20
2018-11-26T13:13:01.654Z,66.20
2018-11-26T13:15:30.178Z,66.20
2018-11-26T13:17:58.793Z,66.20
2018-11-26T13:20:28.346Z,66.20
2018-11-26T13:22:57.033Z,66.20
2018-11-26T13:25:34.654Z,66.20
2018-11-26T13:28:03.785Z,66.20
2018-11-26T13:30:37.757Z,66.20
2018-11-26T13:33:09.641Z,66.20
2018-11-26T13:35:38.707Z,66.20
2018-11-26T13:38:08.270Z,66.20
2018-11-26T13:40:36.839Z,66.20
2018-11-26T13:43:07.855Z,66.20
2018-11-26T13:45:43.742Z,66.20
2018-11-26T13:48:13.730Z,66.20
2018-11-26T13:50:48.181Z,66.20
2018-11-26T13:53:16.736Z,66.20
2018-11-26T13:55:45.318Z,66.20
2018-11-26T13:58:13.824Z,66.30
2018-11-26T14:00:42.294Z,66.30
2018-11-26T14:03:10.766Z,66.30
2018-11-26T14:05:39.225Z,66.40
2018-11-26T14:08:07.728Z,66.30
2018-11-26T14:10:36.155Z,66.30
2018-11-26T14:13:09.178Z,66.30
2018-11-26T14:15:37.693Z,66.30
2018-11-26T14:18:06.212Z,66.30
2018-11-26T14:20:34.880Z,66.30
2018-11-26T14:23:04.792Z,66.50
2018-11-26T14:25:33.510Z,66.50
2018-11-26T14:28:02.138Z,66.60
2018-11-26T14:30:30.787Z,66.50
2018-11-26T14:32:59.345Z,66.60
2018-11-26T14:35:28.022Z,66.50
2018-11-26T14:37:59.865Z,66.50
2018-11-26T14:40:36.121Z,66.50
2018-11-26T14:43:04.759Z,66.50
2018-11-26T14:45:33.400Z,66.50
2018-11-26T14:48:01.902Z,66.40
2018-11-26T14:50:30.360Z,66.40
2018-11-26T14:52:58.849Z,66.40
2018-11-26T14:55:28.944Z,66.40
2018-11-26T14:57:58.565Z,66.40
2018-11-26T15:00:27.138Z,66.30
2018-11-26T15:02:55.601Z,66.40
2018-11-26T15:05:24.109Z,66.30
2018-11-26T15:07:52.538Z,66.40
2018-11-26T15:10:23.060Z,66.30
2018-11-26T15:12:51.689Z,66.30
2018-11-26T15:15:21.989Z,66.30
2018-11-26T15:17:50.518Z,66.30
2018-11-26T15:20:24.461Z,66.30
2018-11-26T15:22:54.191Z,66.20
2018-11-26T15:25:24.922Z,66.30
2018-11-26T15:28:01.278Z,66.30
2018-11-26T15:30:34.709Z,66.20
2018-11-26T15:33:03.179Z,66.20
2018-11-26T15:35:31.665Z,66.20
2018-11-26T15:38:00.164Z,66.20
2018-11-26T15:40:28.637Z,66.20
2018-11-26T15:42:57.065Z,66.20
2018-11-26T15:45:27.078Z,66.20
2018-11-26T15:48:05.317Z,66.20
2018-11-26T15:50:33.840Z,66.20
2018-11-26T15:53:02.304Z,66.10
2018-11-26T15:55:30.741Z,66.20
2018-11-26T15:58:05.293Z,66.10
2018-11-26T16:00:33.898Z,66.10
2018-11-26T16:03:02.394Z,66.20
2018-11-26T16:05:31.775Z,66.20
2018-11-26T16:09:32.256Z,66.10
2018-11-26T16:12:00.826Z,66.10
2018-11-26T16:14:34.809Z,66.10
2018-11-26T16:17:03.325Z,66.10
2018-11-26T16:19:31.769Z,66.10
2018-11-26T16:22:00.248Z,66.10
2018-11-26T16:24:28.717Z,66.00
2018-11-26T16:26:58.665Z,66.00
2018-11-26T16:29:27.411Z,66.00
2018-11-26T16:31:58.693Z,66.00
2018-11-26T16:34:27.159Z,66.00
2018-11-26T16:36:55.670Z,65.90
2018-11-26T16:40:48.752Z,65.90
2018-11-26T16:45:46.700Z,65.90
2018-11-26T16:48:15.169Z,65.90
2018-11-26T16:50:43.646Z,65.80
2018-11-26T16:57:58.444Z,65.80
2018-11-26T17:00:28.057Z,65.80
2018-11-26T17:02:57.852Z,65.80
2018-11-26T17:05:27.866Z,65.80
2018-11-26T17:07:56.474Z,65.70
2018-11-26T17:10:28.869Z,65.70
2018-11-26T17:12:57.324Z,65.70
2018-11-26T17:15:25.790Z,65.60
2018-11-26T17:17:54.270Z,65.60
2018-11-26T17:20:22.782Z,65.70
2018-11-26T17:22:51.227Z,65.60
2018-11-26T17:25:19.718Z,65.70
2018-11-26T17:27:48.136Z,65.70
2018-11-26T17:30:20.926Z,65.60
2018-11-26T17:32:50.998Z,65.70
2018-11-26T17:35:19.577Z,65.60
2018-11-26T17:37:48.093Z,65.60
2018-11-26T17:40:17.766Z,65.60
2018-11-26T17:42:46.298Z,65.60
2018-11-26T17:45:15.518Z,65.60
2018-11-26T17:47:53.067Z,65.50
2018-11-26T17:50:23.569Z,65.50
2018-11-26T17:52:52.075Z,65.50
2018-11-26T17:55:20.550Z,65.50
2018-11-26T17:57:52.710Z,65.50
2018-11-26T18:00:22.929Z,65.50
2018-11-26T18:02:51.516Z,65.40
2018-11-26T18:05:22.129Z,65.50
2018-11-26T18:08:22.669Z,65.40
2018-11-26T18:10:51.512Z,65.40
2018-11-26T18:13:20.070Z,65.30
2018-11-26T18:15:48.553Z,65.40
2018-11-26T18:18:18.430Z,65.40
2018-11-26T18:20:47.608Z,65.30
2018-11-26T18:23:16.861Z,65.40
2018-11-26T18:25:52.310Z,65.30
2018-11-26T18:28:20.761Z,65.30
2018-11-26T18:30:50.469Z,65.30
2018-11-26T18:33:18.985Z,65.30
2018-11-26T18:35:48.391Z,65.20
2018-11-26T18:38:17.171Z,65.20
2018-11-26T18:40:47.153Z,65.20
2018-11-26T18:43:15.739Z,65.30
2018-11-26T18:45:44.248Z,65.20
2018-11-26T18:48:14.018Z,65.20
2018-11-26T18:50:42.641Z,65.20
2018-11-26T18:53:11.098Z,65.20
2018-11-26T18:55:40.422Z,65.10
2018-11-26T18:58:10.729Z,65.20
2018-11-26T19:00:42.026Z,65.20
2018-11-26T19:03:10.579Z,65.10
2018-11-26T19:05:39.093Z,65.10
2018-11-26T19:08:07.721Z,65.00
2018-11-26T19:10:37.309Z,65.00
2018-11-26T19:13:21.161Z,65.00
2018-11-26T19:16:03.652Z,65.10
2018-11-26T19:18:32.137Z,65.10
2018-11-26T19:21:05.061Z,65.00
2018-11-26T19:23:33.665Z,65.00
2018-11-26T19:26:02.135Z,65.00
2018-11-26T19:28:30.559Z,64.90
2018-11-26T19:31:05.629Z,65.00
2018-11-26T19:33:34.154Z,65.00
2018-11-26T19:36:04.901Z,64.90
2018-11-26T19:38:34.748Z,64.90
2018-11-26T19:41:03.276Z,64.90
2018-11-26T19:43:31.714Z,64.90
2018-11-26T19:46:04.933Z,64.90
2018-11-26T19:48:34.824Z,64.90
2018-11-26T19:51:03.293Z,64.80
2018-11-26T19:53:31.782Z,64.90
2018-11-26T19:56:00.201Z,64.80
2018-11-26T19:58:28.744Z,64.80
2018-11-26T20:00:57.234Z,64.80
2018-11-26T20:03:30.398Z,64.80
2018-11-26T20:06:11.224Z,64.80
2018-11-26T20:08:40.293Z,64.80
2018-11-26T20:11:16.318Z,64.80
2018-11-26T20:13:44.875Z,64.70
2018-11-26T20:16:15.127Z,64.60
2018-11-26T20:18:43.633Z,64.60
2018-11-26T20:21:12.046Z,64.70
2018-11-26T20:23:40.582Z,64.70
2018-11-26T20:26:09.110Z,64.70
2018-11-26T20:28:37.537Z,64.60
2018-11-26T20:31:11.338Z,64.70
2018-11-26T20:33:40.855Z,64.80
2018-11-26T20:36:11.068Z,64.60
2018-11-26T20:38:39.664Z,64.60
2018-11-26T20:41:09.349Z,64.70
2018-11-26T20:43:40.938Z,64.60
2018-11-26T20:46:09.433Z,64.60
2018-11-26T20:48:37.895Z,64.60
2018-11-26T20:51:07.383Z,64.60
2018-11-26T20:53:35.825Z,64.60
2018-11-26T20:56:11.245Z,64.50
2018-11-26T20:58:39.809Z,64.50
2018-11-26T21:01:10.938Z,64.50
2018-11-26T21:03:39.437Z,64.50
2018-11-26T21:06:07.917Z,64.40
2018-11-26T21:08:36.394Z,64.50
2018-11-26T21:11:04.892Z,64.50
2018-11-26T21:13:33.366Z,64.50
2018-11-26T21:16:01.842Z,64.50
2018-11-26T21:18:30.328Z,64.50
2018-11-26T21:20:58.791Z,64.40
2018-11-26T21:23:31.599Z,64.40
2018-11-26T21:26:02.486Z,64.50
2018-11-26T21:28:30.915Z,64.40
2018-11-26T21:30:59.477Z,64.40
2018-11-26T21:33:27.954Z,64.40
2018-11-26T21:37:20.858Z,64.40
2018-11-26T21:39:53.018Z,64.40
2018-11-26T21:42:21.473Z,64.40
2018-11-26T21:44:49.917Z,64.40
2018-11-26T21:47:18.655Z,64.50
2018-11-26T21:49:47.143Z,64.40
2018-11-26T21:52:15.594Z,64.40
2018-11-26T21:54:44.080Z,64.40
2018-11-26T21:57:12.541Z,64.40
2018-11-26T21:59:41.064Z,64.30
2018-11-26T22:02:09.513Z,64.30
2018-11-26T22:04:38.010Z,64.30
2018-11-26T22:07:06.505Z,64.30
2018-11-26T22:09:34.980Z,64.30
2018-11-26T22:12:03.400Z,64.30
2018-11-26T22:14:34.996Z,64.30
2018-11-26T22:17:03.473Z,64.30
2018-11-26T22:19:31.954Z,64.20
2018-11-26T22:22:00.448Z,64.20
2018-11-26T22:24:28.918Z,64.20
2018-11-26T22:26:59.038Z,64.20
2018-11-26T22:29:27.520Z,64.20
2018-11-26T22:31:56.000Z,64.20
2018-11-26T22:34:24.439Z,64.20
2018-11-26T22:36:52.973Z,64.30
2018-11-26T22:39:21.437Z,64.30
2018-11-26T22:41:49.918Z,64.30
2018-11-26T22:44:18.395Z,64.30
2018-11-26T22:46:46.814Z,64.20
2018-11-26T22:49:15.364Z,64.20
2018-11-26T22:51:51.244Z,64.20
2018-11-26T22:54:15.613Z,64.20
2018-11-26T22:56:44.091Z,64.20
2018-11-26T22:59:12.577Z,64.20
2018-11-26T23:01:47.006Z,64.20
2018-11-26T23:04:15.481Z,64.10
2018-11-26T23:06:43.922Z,64.10
2018-11-26T23:09:12.426Z,64.20
2018-11-26T23:11:40.922Z,64.10
2018-11-26T23:14:09.380Z,64.20
2018-11-26T23:16:37.822Z,64.10
2018-11-26T23:19:06.642Z,64.10
2018-11-26T23:21:41.000Z,64.10
2018-11-26T23:24:10.931Z,64.10
2018-11-26T23:26:39.609Z,64.10
2018-11-26T23:29:08.293Z,64.10
2018-11-26T23:31:36.737Z,64.10
2018-11-26T23:34:05.286Z,64.10
2018-11-26T23:36:33.926Z,64.10
2018-11-26T23:39:02.361Z,64.00
2018-11-26T23:41:30.801Z,63.90
2018-11-26T23:44:05.093Z,63.90
2018-11-26T23:46:35.032Z,64.00
2018-11-26T23:49:03.473Z,64.00
2018-11-26T23:51:31.898Z,64.00
2018-11-26T23:54:00.437Z,64.00
2018-11-26T23:56:28.920Z,64.00
2018-11-26T23:58:57.369Z,64.00
